Time;durP1;ratioP1;P1;durP2;ratioP2;P2;SDS_P1;SDS_P2;PMS_P1;PMS_P2;Temp;Humidity;BMP_temperature;BMP_pressure;BME280_temperature;BME280_humidity;BME280_pressure;Samples;Min_cycle;Max_cycle;Signal;HPM_P1;HPM_P2
2023/03/24 00:00:24;;;;;;;17.80;14.10;;;;;;;10.90;63.39;101677.10;106990;1269;22528;-52
2023/03/24 00:02:55;;;;;;;15.60;13.50;;;;;;;10.90;63.34;101679.53;107043;1272;25458;-50
2023/03/24 00:05:24;;;;;;;17.00;13.80;;;;;;;10.90;63.29;101676.75;106855;1271;22632;-51
2023/03/24 00:07:53;;;;;;;20.80;14.70;;;;;;;10.89;63.30;101674.34;107086;1268;25379;-51
2023/03/24 00:10:23;;;;;;;17.00;14.00;;;;;;;10.89;63.17;101677.64;107029;1268;26597;-51
2023/03/24 00:12:52;;;;;;;17.00;14.70;;;;;;;10.89;63.07;101678.84;106151;1256;1002967;-51
2023/03/24 00:15:24;;;;;;;17.10;14.40;;;;;;;10.90;63.00;101675.19;106993;1268;25651;-51
2023/03/24 00:17:56;;;;;;;17.60;15.30;;;;;;;10.91;63.03;101673.98;106824;1252;22538;-51
2023/03/24 00:20:28;;;;;;;19.70;14.90;;;;;;;10.92;62.98;101670.13;107014;1268;25367;-51
2023/03/24 00:22:57;;;;;;;17.80;14.80;;;;;;;10.91;62.92;101664.08;107011;1267;25328;-50
2023/03/24 00:25:32;;;;;;;20.90;15.90;;;;;;;10.90;62.92;101663.05;106984;1269;24293;-50
2023/03/24 00:28:04;;;;;;;18.90;15.60;;;;;;;10.89;63.00;101659.58;107010;1269;22534;-51
2023/03/24 00:30:35;;;;;;;18.90;15.40;;;;;;;10.91;63.03;101661.66;106775;1269;25476;-51
2023/03/24 00:33:03;;;;;;;17.70;15.40;;;;;;;10.91;63.10;101655.23;107059;1268;26650;-50
2023/03/24 00:35:43;;;;;;;17.50;15.20;;;;;;;10.92;63.08;101647.23;106865;1269;25350;-51
2023/03/24 00:38:13;;;;;;;19.90;16.50;;;;;;;10.92;63.18;101647.23;107018;1268;22579;-51
2023/03/24 00:40:47;;;;;;;18.30;15.60;;;;;;;10.94;63.26;101650.17;106958;1271;22517;-50
2023/03/24 00:43:17;;;;;;;17.80;15.30;;;;;;;10.94;63.30;101655.88;106985;1270;25325;-51
2023/03/24 00:45:46;;;;;;;19.60;15.10;;;;;;;10.94;63.39;101654.51;107027;1268;22514;-50
2023/03/24 00:48:23;;;;;;;20.20;16.40;;;;;;;10.94;63.45;101655.89;106459;1271;1003359;-50
2023/03/24 00:50:51;;;;;;;17.50;15.60;;;;;;;10.94;63.48;101656.41;107056;1252;24208;-51
2023/03/24 00:53:22;;;;;;;17.40;15.10;;;;;;;10.96;63.50;101650.67;107096;1269;26574;-50
2023/03/24 00:55:53;;;;;;;18.70;16.40;;;;;;;10.95;63.54;101648.77;106920;1268;25376;-51
2023/03/24 00:58:23;;;;;;;18.20;15.90;;;;;;;10.95;63.50;101647.90;107099;1269;25236;-51
2023/03/24 01:00:54;;;;;;;19.40;16.40;;;;;;;10.95;63.46;101651.88;106739;1269;22527;-52
2023/03/24 01:03:26;;;;;;;18.90;16.00;;;;;;;10.94;63.45;101653.27;107001;1268;25322;-51
2023/03/24 01:06:00;;;;;;;17.70;15.80;;;;;;;10.95;63.50;101655.19;107060;1271;25335;-50
2023/03/24 01:08:31;;;;;;;18.50;16.00;;;;;;;10.95;63.46;101650.85;107121;1268;25417;-51
2023/03/24 01:11:00;;;;;;;20.20;16.40;;;;;;;10.95;63.51;101652.93;107096;1268;25360;-51
2023/03/24 01:13:29;;;;;;;21.90;16.10;;;;;;;10.98;63.52;101656.38;107152;1268;25361;-50
2023/03/24 01:15:58;;;;;;;20.10;16.70;;;;;;;10.99;63.46;101654.11;106754;1257;25353;-50
2023/03/24 01:18:26;;;;;;;20.80;16.80;;;;;;;11.00;63.44;101656.72;107087;1269;25328;-51
2023/03/24 01:20:57;;;;;;;19.50;15.70;;;;;;;11.00;63.40;101655.15;106978;1268;25396;-51
2023/03/24 01:23:25;;;;;;;17.60;15.60;;;;;;;11.00;63.41;101653.94;106707;1269;24193;-51
2023/03/24 01:25:54;;;;;;;20.00;16.30;;;;;;;11.00;63.40;101658.11;107008;1268;26624;-52
2023/03/24 01:28:23;;;;;;;36.50;18.30;;;;;;;11.00;63.40;101661.92;106826;1269;22523;-50
2023/03/24 01:30:53;;;;;;;33.70;19.10;;;;;;;10.99;63.35;101669.05;106907;1269;22566;-50
2023/03/24 01:33:21;;;;;;;23.70;17.50;;;;;;;10.97;63.18;101674.63;107095;1268;22541;-51
2023/03/24 01:35:50;;;;;;;28.50;18.80;;;;;;;10.95;63.34;101678.11;106768;1270;26601;-51
2023/03/24 01:38:20;;;;;;;23.20;17.40;;;;;;;10.95;63.32;101681.23;107068;1268;25351;-51
2023/03/24 01:40:49;;;;;;;21.20;16.30;;;;;;;10.95;63.25;101687.65;106725;1275;24214;-51
2023/03/24 01:43:20;;;;;;;18.70;16.40;;;;;;;10.92;63.05;101696.69;107069;1268;22520;-51
2023/03/24 01:46:12;;;;;;;20.20;16.90;;;;;;;10.83;63.23;101699.90;106811;1271;22516;-52
2023/03/24 01:49:02;;;;;;;21.00;17.30;;;;;;;10.74;63.68;101704.14;106813;1253;22788;-50
2023/03/24 01:51:34;;;;;;;20.50;18.00;;;;;;;10.65;63.91;101705.24;106876;1270;22738;-53
2023/03/24 01:54:10;;;;;;;18.90;16.70;;;;;;;10.62;64.19;101704.23;106806;1270;24359;-51
2023/03/24 01:56:42;;;;;;;20.20;17.20;;;;;;;10.63;64.27;101711.86;106905;1251;22637;-51
2023/03/24 01:59:12;;;;;;;18.60;15.70;;;;;;;10.61;64.31;101716.90;106893;1268;25232;-51
2023/03/24 02:02:01;;;;;;;19.40;15.90;;;;;;;10.57;64.32;101723.18;106951;1268;25484;-52
2023/03/24 02:04:45;;;;;;;18.90;16.10;;;;;;;10.50;64.49;101721.98;106907;1270;26494;-51
2023/03/24 02:07:45;;;;;;;20.50;18.10;;;;;;;10.45;64.67;101720.65;107047;1268;25353;-52
2023/03/24 02:10:18;;;;;;;18.80;16.20;;;;;;;10.42;64.84;101718.41;106030;1275;1003263;-51
2023/03/24 02:12:47;;;;;;;20.00;17.10;;;;;;;10.41;65.03;101713.90;107024;1262;22520;-51
2023/03/24 02:15:18;;;;;;;;;;;;;;;10.41;65.01;101710.79;107048;1268;25348;-52
2023/03/24 02:18:06;;;;;;;22.80;18.40;;;;;;;10.40;65.15;101703.85;106857;1256;22630;-51
2023/03/24 02:21:01;;;;;;;23.00;18.30;;;;;;;10.41;65.44;101697.94;107098;1268;23961;-51
2023/03/24 02:23:46;;;;;;;22.80;18.10;;;;;;;10.42;65.56;101695.34;106900;1271;22530;-51
2023/03/24 02:26:30;;;;;;;21.50;17.30;;;;;;;10.47;65.43;101696.52;107074;1268;24215;-51
2023/03/24 02:29:08;;;;;;;25.90;16.90;;;;;;;10.52;65.08;101692.32;106736;1272;23009;-51
2023/03/24 02:32:11;;;;;;;21.20;17.60;;;;;;;10.55;64.64;101686.58;107083;1256;22660;-51
2023/03/24 02:35:01;;;;;;;20.30;17.80;;;;;;;10.54;63.79;101676.36;106521;1270;22536;-51
2023/03/24 02:37:56;;;;;;;22.10;16.40;;;;;;;10.54;63.70;101670.28;106372;1274;24406;-51
2023/03/24 02:40:38;;;;;;;19.30;16.80;;;;;;;10.53;63.91;101663.17;106341;1281;24230;-50
2023/03/24 02:43:36;;;;;;;19.70;16.90;;;;;;;10.55;63.96;101655.17;106641;1273;24241;-51
2023/03/24 02:46:20;;;;;;;20.60;17.50;;;;;;;10.57;63.97;101654.81;106164;1279;25367;-51
2023/03/24 02:48:58;;;;;;;20.40;17.10;;;;;;;10.58;64.04;101656.89;106189;1280;22536;-51
2023/03/24 02:51:52;;;;;;;20.50;17.30;;;;;;;10.60;64.12;101653.23;106214;1279;26517;-51
2023/03/24 02:54:53;;;;;;;22.00;17.40;;;;;;;10.61;64.24;101650.27;106284;1280;25488;-51
2023/03/24 02:57:46;;;;;;;22.20;18.30;;;;;;;10.64;64.40;101647.99;105564;1279;1002954;-51
2023/03/24 03:00:46;;;;;;;21.70;17.80;;;;;;;10.67;64.55;101652.48;105799;1285;25476;-51
2023/03/24 03:03:40;;;;;;;21.00;18.20;;;;;;;10.70;64.53;101658.17;105725;1285;25335;-51
2023/03/24 03:06:14;;;;;;;21.90;17.60;;;;;;;10.72;64.47;101663.02;105654;1289;25423;-51
2023/03/24 03:08:46;;;;;;;21.20;17.80;;;;;;;10.74;64.47;101672.38;105649;1287;22529;-51
2023/03/24 03:11:15;;;;;;;22.50;18.50;;;;;;;10.75;64.53;101673.25;105725;1287;25360;-51
2023/03/24 03:13:48;;;;;;;22.00;19.00;;;;;;;10.77;64.60;101678.61;106156;1281;25353;-51
2023/03/24 03:16:37;;;;;;;21.70;18.90;;;;;;;10.79;64.64;101683.79;106274;1278;23911;-51
2023/03/24 03:19:18;;;;;;;22.00;18.70;;;;;;;10.81;64.58;101694.02;106100;1279;24408;-51
2023/03/24 03:21:48;;;;;;;20.60;17.60;;;;;;;10.82;64.52;101705.28;106123;1272;26077;-51
2023/03/24 03:24:29;;;;;;;20.40;17.60;;;;;;;10.81;64.43;101705.13;106270;1273;22539;-52
2023/03/24 03:27:02;;;;;;;22.10;17.70;;;;;;;10.81;64.48;101702.52;106439;1273;25342;-51
2023/03/24 03:29:34;;;;;;;20.80;19.30;;;;;;;10.83;64.48;101696.61;106619;1273;22561;-51
2023/03/24 03:32:06;;;;;;;21.40;18.20;;;;;;;10.84;64.53;101693.83;106510;1276;25262;-52
2023/03/24 03:34:44;;;;;;;21.80;17.80;;;;;;;10.86;64.51;101693.63;106569;1278;22748;-51
2023/03/24 03:37:44;;;;;;;22.10;17.70;;;;;;;10.89;64.44;101694.13;106694;1269;24265;-51
2023/03/24 03:40:32;;;;;;;22.20;18.00;;;;;;;10.91;64.31;101693.93;106373;1278;25457;-51
2023/03/24 03:43:06;;;;;;;19.10;17.10;;;;;;;10.91;64.30;101692.89;106080;1282;23868;-51
2023/03/24 03:45:37;;;;;;;21.10;17.70;;;;;;;10.92;64.32;101698.09;105558;1275;1003646;-52
2023/03/24 03:48:06;;;;;;;21.50;18.10;;;;;;;10.91;64.30;101698.98;106227;1282;24058;-51
2023/03/24 03:50:36;;;;;;;20.90;17.70;;;;;;;10.89;64.31;101696.56;106499;1275;22537;-51
2023/03/24 03:53:08;;;;;;;22.60;18.50;;;;;;;10.89;64.37;101699.33;106392;1275;24243;-51
2023/03/24 03:55:37;;;;;;;19.80;17.70;;;;;;;10.90;64.37;101697.94;106442;1276;25363;-52
2023/03/24 03:58:06;;;;;;;22.10;18.00;;;;;;;10.90;64.39;101706.61;106452;1275;25511;-52
2023/03/24 04:00:45;;;;;;;21.30;18.10;;;;;;;10.89;64.35;101710.10;106469;1276;25389;-51
2023/03/24 04:03:57;;;;;;;23.30;16.90;;;;;;;10.89;64.18;101710.27;106381;1275;25335;-52
2023/03/24 04:07:17;;;;;;;21.70;17.10;;;;;;;10.88;64.16;101710.63;106429;1275;25332;-51
2023/03/24 04:10:08;;;;;;;21.20;17.00;;;;;;;10.87;63.95;101704.73;106295;1276;22542;-51
2023/03/24 04:13:18;;;;;;;21.40;18.10;;;;;;;10.86;63.88;101705.26;106410;1275;25482;-51
2023/03/24 04:16:16;;;;;;;22.30;16.70;;;;;;;10.86;63.67;101705.09;106234;1279;25721;-51
2023/03/24 04:19:06;;;;;;;24.40;17.20;;;;;;;10.85;63.73;101703.35;106328;1276;22584;-51
2023/03/24 04:21:41;;;;;;;19.70;17.10;;;;;;;10.85;63.76;101708.05;106392;1274;24018;-51
2023/03/24 04:24:25;;;;;;;20.00;17.10;;;;;;;10.84;63.74;101710.31;106409;1274;22534;-51
2023/03/24 04:26:59;;;;;;;21.80;17.30;;;;;;;10.84;63.71;101707.52;106236;1279;24217;-51
2023/03/24 04:29:41;;;;;;;21.40;17.70;;;;;;;10.83;63.75;101710.67;106426;1275;25355;-51
2023/03/24 04:32:31;;;;;;;19.10;16.50;;;;;;;10.86;63.74;101708.73;106471;1274;25361;-51
2023/03/24 04:35:03;;;;;;;19.00;16.30;;;;;;;10.87;63.72;101709.25;106371;1274;22706;-51
2023/03/24 04:37:52;;;;;;;19.30;17.20;;;;;;;10.88;63.61;101711.31;106310;1282;25366;-51
2023/03/24 04:40:25;;;;;;;20.10;17.30;;;;;;;10.89;63.60;101707.84;106381;1275;25546;-52
2023/03/24 04:42:54;;;;;;;19.60;16.50;;;;;;;10.88;63.56;101706.63;106352;1276;25377;-51
2023/03/24 04:45:27;;;;;;;23.30;17.90;;;;;;;10.89;63.62;101700.71;106281;1275;22594;-51
2023/03/24 04:48:34;;;;;;;21.50;17.30;;;;;;;10.91;63.73;101694.98;106013;1283;25369;-52
2023/03/24 04:51:03;;;;;;;20.80;16.20;;;;;;;10.92;63.88;101690.45;106094;1281;25419;-52
2023/03/24 04:53:46;;;;;;;19.70;16.20;;;;;;;10.94;63.99;101681.92;106411;1272;25370;-51
2023/03/24 04:56:37;;;;;;;20.10;17.40;;;;;;;10.97;64.13;101684.52;106990;1268;24216;-52
2023/03/24 04:59:18;;;;;;;19.10;16.60;;;;;;;11.00;64.31;101684.14;107007;1268;25338;-52
2023/03/24 05:01:50;;;;;;;19.00;16.60;;;;;;;11.03;64.35;101687.23;106816;1270;22633;-52
2023/03/24 05:04:42;;;;;;;19.70;16.70;;;;;;;11.08;64.47;101682.50;107003;1268;25401;-51
2023/03/24 05:07:20;;;;;;;22.20;17.90;;;;;;;11.11;64.60;101681.26;107151;1268;23284;-52
2023/03/24 05:09:51;;;;;;;18.80;16.60;;;;;;;11.16;64.79;101686.26;106819;1273;22521;-51
2023/03/24 05:12:26;;;;;;;18.80;16.70;;;;;;;11.20;65.07;101686.55;106232;1268;1002433;-51
2023/03/24 05:15:21;;;;;;;22.20;17.10;;;;;;;11.27;65.35;101688.75;106880;1275;25412;-52
2023/03/24 05:17:54;;;;;;;20.20;17.90;;;;;;;11.33;65.56;101689.89;107048;1268;24260;-51
2023/03/24 05:20:25;;;;;;;21.10;18.40;;;;;;;11.40;65.82;101691.58;106983;1268;22539;-51
2023/03/24 05:22:57;;;;;;;21.80;17.70;;;;;;;11.48;66.05;101689.59;107028;1268;24266;-51
2023/03/24 05:25:26;;;;;;;21.70;19.10;;;;;;;11.56;66.14;101689.31;107007;1268;22520;-51
2023/03/24 05:27:55;;;;;;;20.80;17.80;;;;;;;11.65;66.29;101688.88;106774;1268;26747;-51
2023/03/24 05:30:25;;;;;;;23.60;18.70;;;;;;;11.73;66.42;101690.55;106850;1268;25367;-51
2023/03/24 05:33:02;;;;;;;21.50;18.00;;;;;;;11.81;66.51;101681.75;106860;1268;23272;-51
2023/03/24 05:35:32;;;;;;;21.60;18.90;;;;;;;11.90;66.53;101684.61;106879;1272;25388;-51
2023/03/24 05:38:05;;;;;;;19.20;17.10;;;;;;;11.99;66.54;101683.27;106978;1269;25402;-50
2023/03/24 05:40:35;;;;;;;22.90;18.50;;;;;;;12.09;66.49;101682.27;106838;1261;25328;-50
2023/03/24 05:43:14;;;;;;;21.00;18.20;;;;;;;12.19;66.51;101682.30;106910;1272;25353;-50
2023/03/24 05:45:49;;;;;;;20.70;17.90;;;;;;;12.30;66.39;101683.04;106221;1268;1003065;-50
2023/03/24 05:48:27;;;;;;;20.50;18.30;;;;;;;12.39;66.31;101679.94;107083;1268;25354;-50
2023/03/24 05:51:07;;;;;;;19.20;17.10;;;;;;;12.49;66.09;101686.23;107059;1269;25343;-50
2023/03/24 05:53:36;;;;;;;24.00;18.80;;;;;;;12.57;65.94;101695.33;106827;1268;24276;-50
2023/03/24 05:56:40;;;;;;;19.30;17.30;;;;;;;12.65;65.68;101699.73;106288;1275;25526;-51
2023/03/24 05:59:42;;;;;;;;;;;;;;;12.75;65.59;101711.59;106332;1275;25389;-51
2023/03/24 06:02:22;;;;;;;21.20;17.70;;;;;;;12.83;65.61;101721.55;106371;1277;25366;-50
2023/03/24 06:05:14;;;;;;;24.00;19.60;;;;;;;12.92;65.52;101729.08;106239;1277;25384;-51
2023/03/24 06:07:45;;;;;;;23.50;20.10;;;;;;;12.98;65.37;101729.15;106451;1276;25421;-50
2023/03/24 06:10:17;;;;;;;25.00;21.00;;;;;;;13.07;65.48;101732.00;106388;1278;23935;-50
2023/03/24 06:12:50;;;;;;;26.50;22.00;;;;;;;13.21;65.69;101728.98;106360;1278;25372;-50
2023/03/24 06:15:19;;;;;;;28.20;22.70;;;;;;;13.36;65.33;101731.85;106395;1275;22521;-51
2023/03/24 06:17:53;;;;;;;26.90;23.30;;;;;;;13.50;64.74;101731.42;106289;1275;25514;-49
2023/03/24 06:20:31;;;;;;;28.00;22.70;;;;;;;13.62;64.30;101732.42;106344;1276;25489;-50
2023/03/24 06:22:59;;;;;;;26.20;21.00;;;;;;;13.74;64.12;101739.34;106312;1275;22675;-50
2023/03/24 06:25:34;;;;;;;23.60;19.30;;;;;;;13.87;63.97;101748.33;106391;1275;25322;-50
2023/03/24 06:28:16;;;;;;;21.40;18.30;;;;;;;13.99;63.56;101758.91;106379;1275;25363;-49
2023/03/24 06:30:48;;;;;;;19.10;17.00;;;;;;;14.08;63.24;101768.67;106536;1268;25344;-50
2023/03/24 06:33:24;;;;;;;18.10;15.80;;;;;;;14.16;62.87;101771.29;107062;1267;24349;-50
2023/03/24 06:35:54;;;;;;;18.70;14.80;;;;;;;14.21;62.62;101775.02;106859;1268;22598;-50
2023/03/24 06:38:22;;;;;;;19.70;15.60;;;;;;;14.26;62.30;101773.02;106989;1268;22539;-50
2023/03/24 06:40:52;;;;;;;16.80;14.90;;;;;;;14.28;62.09;101775.42;106043;1275;1003602;-50
2023/03/24 06:43:20;;;;;;;20.90;15.40;;;;;;;14.28;62.01;101784.85;106769;1271;22533;-50
2023/03/24 06:49:15;;;;;;;17.20;13.90;;;;;;;14.26;62.09;101786.77;103551;1298;545616;-51
2023/03/24 06:51:44;;;;;;;19.10;14.30;;;;;;;14.20;62.12;101788.31;106346;1282;23938;-50
2023/03/24 06:54:18;;;;;;;17.20;13.20;;;;;;;14.15;62.19;101787.54;106230;1276;25456;-51
2023/03/24 06:56:47;;;;;;;14.20;11.70;;;;;;;14.10;62.47;101788.86;106069;1278;24248;-50
2023/03/24 06:59:16;;;;;;;13.40;9.60;;;;;;;14.05;62.55;101788.63;105998;1287;25254;-50
2023/03/24 07:01:48;;;;;;;10.70;7.90;;;;;;;13.99;62.65;101788.76;105937;1281;231245;-50
2023/03/24 07:04:24;;;;;;;9.10;6.80;;;;;;;13.95;62.74;101788.63;106351;1284;25328;-50
2023/03/24 07:06:55;;;;;;;7.60;6.80;;;;;;;13.92;62.93;101784.34;106310;1269;22527;-50
2023/03/24 07:09:49;;;;;;;5.60;5.00;;;;;;;13.90;63.13;101783.15;104647;1279;1003373;-50
2023/03/24 07:12:17;;;;;;;6.40;4.90;;;;;;;13.90;62.99;101782.27;106335;1282;22544;-51
2023/03/24 07:14:46;;;;;;;6.00;5.50;;;;;;;13.90;63.18;101785.07;106004;1272;24069;-50
2023/03/24 07:17:19;;;;;;;5.70;5.20;;;;;;;13.91;63.09;101787.33;106502;1275;23336;-51
2023/03/24 07:20:08;;;;;;;4.00;3.60;;;;;;;13.91;62.72;101786.44;106393;1275;25370;-49
2023/03/24 07:23:00;;;;;;;4.40;4.00;;;;;;;13.91;62.70;101781.05;106321;1274;25336;-50
2023/03/24 07:25:50;;;;;;;4.10;3.80;;;;;;;13.92;62.73;101779.27;106603;1273;25373;-51
2023/03/24 07:28:45;;;;;;;3.50;3.20;;;;;;;13.96;62.62;101776.05;106283;1276;25407;-50
2023/03/24 07:31:21;;;;;;;3.70;3.40;;;;;;;14.01;62.62;101781.02;106373;1276;22652;-50
2023/03/24 07:33:54;;;;;;;3.50;3.20;;;;;;;14.08;62.29;101784.38;106748;1278;22631;-50
2023/03/24 10:11:15;;;;;;;7.30;6.60;;;;;;;14.49;59.30;101737.96;107119;1266;24212;-49
2023/03/24 10:14:11;;;;;;;7.10;6.40;;;;;;;14.52;59.60;101743.50;106468;1276;25408;-49
2023/03/24 10:16:41;;;;;;;7.30;6.60;;;;;;;14.57;59.60;101740.25;106834;1277;25489;-48
2023/03/24 10:19:27;;;;;;;7.30;6.60;;;;;;;14.60;59.45;101744.00;107333;1272;25331;-48
2023/03/24 10:22:05;;;;;;;6.50;5.80;;;;;;;14.84;58.84;101745.91;106749;1277;24292;-48
2023/03/24 10:24:35;;;;;;;6.70;6.10;;;;;;;14.77;58.72;101740.84;106657;1273;25416;-49
2023/03/24 10:27:45;;;;;;;6.60;6.00;;;;;;;14.74;58.64;101743.17;106688;1281;25482;-49
2023/03/24 10:30:33;;;;;;;6.50;5.90;;;;;;;14.76;58.43;101743.83;106191;1287;22847;-49
2023/03/24 10:33:02;;;;;;;7.00;6.40;;;;;;;14.76;58.44;101746.79;105825;1287;22537;-49
2023/03/24 10:35:34;;;;;;;6.00;5.50;;;;;;;14.77;58.74;101749.73;105892;1285;25320;-49
2023/03/24 10:38:08;;;;;;;5.70;5.20;;;;;;;14.79;58.33;101753.36;105923;1287;22874;-49
2023/03/24 10:40:37;;;;;;;6.30;5.70;;;;;;;14.79;58.08;101751.09;105683;1287;22739;-49
2023/03/24 10:43:05;;;;;;;6.00;5.40;;;;;;;14.77;58.04;101742.91;105934;1282;22543;-49
2023/03/24 10:45:42;;;;;;;5.60;5.10;;;;;;;14.75;58.38;101740.71;105710;1287;25365;-49
2023/03/24 10:48:13;;;;;;;5.50;4.90;;;;;;;14.73;58.50;101742.68;105927;1287;22548;-49
2023/03/24 10:50:47;;;;;;;5.90;5.30;;;;;;;14.71;58.53;101745.69;106380;1280;25481;-49
2023/03/24 10:53:17;;;;;;;5.80;5.30;;;;;;;14.70;58.50;101741.68;106693;1277;22527;-49
2023/03/24 10:55:46;;;;;;;5.70;5.20;;;;;;;14.68;58.53;101736.82;106680;1279;22588;-49
2023/03/24 10:58:35;;;;;;;5.80;5.30;;;;;;;14.72;58.44;101737.27;106810;1275;24140;-49
2023/03/24 11:01:09;;;;;;;5.50;5.00;;;;;;;14.77;58.27;101742.06;106793;1280;24426;-48
2023/03/24 11:03:44;;;;;;;6.10;5.50;;;;;;;14.81;58.09;101734.11;106664;1278;25352;-49
2023/03/24 11:06:22;;;;;;;6.60;5.80;;;;;;;14.84;57.93;101732.63;106402;1273;24712;-49
2023/03/24 11:09:18;;;;;;;6.60;6.00;;;;;;;14.84;57.69;101730.02;107136;1273;25312;-49
2023/03/24 11:11:47;;;;;;;6.20;5.60;;;;;;;14.78;57.96;101724.89;106110;1273;1002960;-49
2023/03/24 11:14:26;;;;;;;7.80;7.10;;;;;;;14.75;57.96;101717.13;107141;1252;22626;-49
2023/03/24 11:17:02;;;;;;;12.70;6.30;;;;;;;14.68;58.03;101712.56;107189;1267;25343;-49
2023/03/24 11:19:31;;;;;;;7.10;6.40;;;;;;;14.62;58.37;101709.56;107133;1269;22998;-49
2023/03/24 11:22:02;;;;;;;7.60;6.90;;;;;;;14.61;58.60;101706.27;107010;1273;25313;-49
2023/03/24 11:24:36;;;;;;;7.60;6.90;;;;;;;14.60;58.72;101702.63;107105;1267;25319;-49
2023/03/24 11:27:04;;;;;;;8.30;7.50;;;;;;;14.58;58.69;101698.50;107117;1267;22800;-49
2023/03/24 11:29:37;;;;;;;9.50;8.60;;;;;;;14.56;58.91;101691.20;106766;1275;25350;-49
2023/03/24 11:32:12;;;;;;;8.90;8.00;;;;;;;14.54;59.04;101687.91;107125;1270;24229;-48
2023/03/24 11:34:50;;;;;;;9.20;8.30;;;;;;;14.53;59.14;101680.45;107157;1267;25386;-49
2023/03/24 11:37:21;;;;;;;9.10;8.10;;;;;;;14.50;59.03;101675.95;107094;1267;22532;-48
2023/03/24 11:40:18;;;;;;;9.10;8.20;;;;;;;14.48;59.18;101677.23;107224;1267;22534;-49
2023/03/24 11:42:53;;;;;;;8.00;7.20;;;;;;;14.47;59.25;101675.86;107189;1270;25340;-49
2023/03/24 11:45:28;;;;;;;8.30;7.50;;;;;;;14.46;59.02;101677.27;107159;1273;24359;-49
2023/03/24 11:47:58;;;;;;;8.50;7.70;;;;;;;14.42;58.98;101669.70;107139;1267;25340;-49
2023/03/24 11:50:29;;;;;;;10.00;8.90;;;;;;;14.39;59.29;101666.97;107102;1267;22513;-49
2023/03/24 11:53:07;;;;;;;8.70;7.90;;;;;;;14.38;59.32;101662.63;107436;1267;25474;-49
2023/03/24 11:55:46;;;;;;;9.10;8.20;;;;;;;14.34;59.47;101656.80;107314;1270;25353;-49
2023/03/24 11:58:55;;;;;;;10.30;8.90;;;;;;;14.32;59.87;101660.84;107123;1267;24181;-49
2023/03/24 12:01:38;;;;;;;10.40;9.40;;;;;;;14.34;60.01;101658.70;106574;1267;25395;-49
2023/03/24 12:04:07;;;;;;;10.20;9.20;;;;;;;14.34;59.97;101653.45;106960;1273;22516;-50
2023/03/24 12:06:59;;;;;;;10.00;9.00;;;;;;;14.34;60.07;101651.02;107096;1273;22520;-49
2023/03/24 12:10:03;;;;;;;;;;;;;;;14.35;59.95;101644.73;107145;1273;25361;-51
2023/03/24 12:12:44;;;;;;;8.80;8.00;;;;;;;14.35;59.73;101646.98;106414;1276;25277;-49
2023/03/24 12:15:26;;;;;;;10.40;9.30;;;;;;;14.32;59.60;101647.77;106317;1277;23124;-49
2023/03/24 12:18:24;;;;;;;8.80;8.00;;;;;;;14.30;59.87;101644.34;106437;1276;22547;-49
2023/03/24 12:20:55;;;;;;;9.20;8.30;;;;;;;14.26;59.79;101640.71;106627;1261;22544;-50
2023/03/24 12:23:45;;;;;;;8.90;8.00;;;;;;;14.22;59.84;101636.80;104970;1277;1003135;-50
2023/03/24 12:26:29;;;;;;;7.90;7.20;;;;;;;14.17;59.76;101633.60;106549;1276;25338;-49
2023/03/24 12:29:22;;;;;;;9.70;8.70;;;;;;;14.12;59.82;101632.14;106876;1268;24334;-49
2023/03/24 12:31:54;;;;;;;8.70;8.00;;;;;;;14.09;60.08;101626.61;106879;1271;24299;-49
2023/03/24 12:34:43;;;;;;;;;;;;;;;14.05;60.27;101626.01;106786;1271;25335;-50
2023/03/24 12:37:33;;;;;;;9.40;8.40;;;;;;;14.02;60.55;101626.08;105847;1290;25463;-49
2023/03/24 12:40:11;;;;;;;8.20;7.40;;;;;;;13.99;60.50;101621.63;106119;1283;26225;-49
2023/03/24 12:42:46;;;;;;;8.90;8.00;;;;;;;13.95;60.66;101625.52;106355;1276;22772;-49
2023/03/24 12:45:39;;;;;;;8.80;8.00;;;;;;;13.93;60.68;101628.36;106119;1283;23886;-49
2023/03/24 12:48:29;;;;;;;10.00;9.00;;;;;;;13.92;60.80;101631.36;106555;1275;22647;-50
2023/03/24 12:51:01;;;;;;;9.60;8.60;;;;;;;13.89;61.01;101631.77;106793;1267;25360;-51
2023/03/24 12:53:41;;;;;;;9.30;8.40;;;;;;;13.89;61.29;101634.39;106666;1267;25883;-48
2023/03/24 12:56:17;;;;;;;10.80;8.90;;;;;;;13.88;61.23;101631.97;106568;1276;25515;-49
2023/03/24 12:58:50;;;;;;;9.80;8.80;;;;;;;13.86;61.48;101633.92;106689;1267;25381;-50
2023/03/24 13:01:34;;;;;;;9.70;8.80;;;;;;;13.89;61.69;101631.41;106791;1267;22520;-50
2023/03/24 13:04:25;;;;;;;9.60;8.70;;;;;;;13.93;61.69;101626.45;106556;1279;22547;-50
2023/03/24 13:07:00;;;;;;;9.70;8.70;;;;;;;13.99;61.50;101624.23;106643;1279;24216;-50
2023/03/24 13:09:54;;;;;;;10.50;9.50;;;;;;;14.03;61.29;101626.06;106459;1276;25464;-50
2023/03/24 13:12:38;;;;;;;9.50;8.50;;;;;;;14.06;61.03;101619.02;106592;1276;24268;-48
2023/03/24 13:15:10;;;;;;;9.60;8.70;;;;;;;14.07;60.62;101606.78;106994;1267;25332;-49
2023/03/24 13:18:03;;;;;;;10.80;9.70;;;;;;;14.06;60.47;101603.85;107105;1267;25335;-49
2023/03/24 13:21:14;;;;;;;11.30;10.20;;;;;;;14.00;60.82;101596.30;107152;1272;22630;-50
2023/03/24 13:23:50;;;;;;;11.60;10.40;;;;;;;13.91;60.77;101592.99;107260;1264;22677;-50
2023/03/24 13:26:46;;;;;;;11.50;10.10;;;;;;;13.83;60.87;101594.22;107463;1267;25456;-50
2023/03/24 13:29:40;;;;;;;12.70;11.40;;;;;;;13.74;61.14;101589.71;107122;1261;25069;-50
2023/03/24 13:32:26;;;;;;;12.80;11.50;;;;;;;13.66;61.70;101584.16;106626;1270;23904;-50
2023/03/24 13:35:10;;;;;;;13.30;12.00;;;;;;;13.60;61.95;101582.36;106646;1270;24241;-50
2023/03/24 13:37:47;;;;;;;12.30;11.20;;;;;;;13.56;62.01;101581.92;106933;1276;22588;-50
2023/03/24 13:40:24;;;;;;;11.80;10.70;;;;;;;13.52;62.09;101583.56;107077;1270;25649;-49
2023/03/24 13:42:56;;;;;;;12.70;11.50;;;;;;;13.47;61.98;101582.27;106569;1270;22580;-50
2023/03/24 13:45:46;;;;;;;12.40;11.30;;;;;;;13.42;62.13;101581.68;106600;1270;22800;-49
2023/03/24 13:48:36;;;;;;;12.30;11.10;;;;;;;13.36;62.38;101584.77;106454;1276;25351;-49
2023/03/24 13:51:14;;;;;;;12.60;11.40;;;;;;;13.31;62.59;101586.95;106723;1267;25403;-50
2023/03/24 13:53:59;;;;;;;12.70;11.50;;;;;;;13.29;62.55;101585.63;106559;1268;23916;-50
2023/03/24 13:56:32;;;;;;;12.30;11.20;;;;;;;13.24;62.71;101590.77;106700;1268;25328;-50
2023/03/24 13:59:00;;;;;;;14.30;12.30;;;;;;;13.21;62.96;101590.30;106696;1271;25009;-49
2023/03/24 14:01:42;;;;;;;12.30;11.10;;;;;;;13.19;62.93;101589.46;106700;1260;22662;-50
2023/03/24 14:04:19;;;;;;;12.70;11.60;;;;;;;13.15;63.22;101588.84;106797;1268;23066;-49
2023/03/24 14:07:04;;;;;;;13.10;11.80;;;;;;;13.12;63.37;101588.04;107185;1266;24284;-50
2023/03/24 14:09:33;;;;;;;12.50;11.30;;;;;;;13.08;63.42;101582.53;107219;1260;25404;-50
2023/03/24 14:12:04;;;;;;;12.80;11.60;;;;;;;13.03;63.44;101578.94;107118;1264;24244;-49
2023/03/24 14:14:56;;;;;;;13.60;12.20;;;;;;;13.00;63.68;101574.64;107183;1267;23897;-49
2023/03/24 14:17:25;;;;;;;14.50;13.10;;;;;;;12.97;63.87;101574.15;107189;1267;22527;-51
2023/03/24 14:19:57;;;;;;;13.00;11.90;;;;;;;12.98;63.91;101572.73;107041;1267;25344;-50
2023/03/24 14:22:29;;;;;;;14.00;12.60;;;;;;;12.99;63.73;101570.63;107048;1273;25399;-49
2023/03/24 14:25:16;;;;;;;13.90;12.60;;;;;;;13.00;63.83;101568.71;107213;1266;25332;-49
2023/03/24 14:27:47;;;;;;;14.40;13.10;;;;;;;13.01;63.82;101563.98;107005;1269;23897;-49
2023/03/24 14:30:20;;;;;;;14.40;12.80;;;;;;;13.01;63.71;101557.01;107111;1267;22963;-50
2023/03/24 14:32:55;;;;;;;14.30;13.00;;;;;;;13.01;63.76;101555.96;107145;1267;22946;-50
2023/03/24 14:35:33;;;;;;;15.00;13.60;;;;;;;13.01;63.71;101560.67;107171;1266;24231;-50